createdAt,value
2022-08-29T00:00:54.027Z,17.5
2022-08-29T00:03:20.652Z,16.8
2022-08-29T00:05:45.772Z,18.7
2022-08-29T00:08:12.389Z,13.2
2022-08-29T00:10:39.021Z,17.5
2022-08-29T00:13:05.637Z,15.3
2022-08-29T00:15:32.275Z,13.1
2022-08-29T00:17:58.084Z,14.5
2022-08-29T00:20:24.694Z,13.5
2022-08-29T00:22:51.322Z,14.2
2022-08-29T00:25:17.038Z,14.8
2022-08-29T00:27:43.662Z,14.7
2022-08-29T00:30:10.291Z,16
2022-08-29T00:32:36.898Z,16.1
2022-08-29T00:35:03.515Z,17.3
2022-08-29T00:37:29.602Z,14.3
2022-08-29T00:39:54.732Z,14.5
2022-08-29T00:42:21.349Z,15.5
2022-08-29T00:44:47.962Z,19.9
2022-08-29T00:47:14.580Z,22.9
2022-08-29T00:49:40.421Z,19.5
2022-08-29T00:52:07.038Z,19.5
2022-08-29T00:54:33.664Z,15.6
2022-08-29T00:57:00.283Z,18.3
2022-08-29T00:59:26.920Z,18.6
2022-08-29T01:01:53.529Z,15.3
2022-08-29T01:04:20.152Z,17.7
2022-08-29T01:06:46.780Z,17.8
2022-08-29T01:09:13.411Z,17.5
2022-08-29T01:11:40.022Z,14.4
2022-08-29T01:14:05.150Z,14.6
2022-08-29T01:16:31.777Z,15.1
2022-08-29T01:18:58.397Z,14.7
2022-08-29T01:21:25.039Z,14.9
2022-08-29T01:23:51.652Z,14.5
2022-08-29T01:26:18.271Z,14.3
2022-08-29T01:28:44.898Z,14.8
2022-08-29T01:31:11.529Z,17.4
2022-08-29T01:33:38.134Z,16.2
2022-08-29T01:36:04.768Z,17.8
2022-08-29T01:38:31.377Z,16.8
2022-08-29T01:40:57.222Z,18.2
2022-08-29T01:43:23.843Z,14.5
2022-08-29T01:45:48.972Z,17.1
2022-08-29T01:48:15.596Z,14.6
2022-08-29T01:50:42.219Z,15.4
2022-08-29T01:53:08.848Z,14.4
2022-08-29T01:55:35.464Z,17.6
2022-08-29T01:58:02.088Z,18.9
2022-08-29T02:00:28.701Z,19.4
2022-08-29T02:02:55.328Z,18.8
2022-08-29T02:05:21.523Z,15.1
2022-08-29T02:07:48.155Z,16.3
2022-08-29T02:10:14.774Z,16.6
2022-08-29T02:12:41.403Z,15.6
2022-08-29T02:15:08.015Z,16.1
2022-08-29T02:17:34.651Z,18.5
2022-08-29T02:20:01.268Z,13.6
2022-08-29T02:22:26.400Z,14.3
2022-08-29T02:24:53.011Z,15.3
2022-08-29T02:27:19.643Z,15.3
2022-08-29T02:29:46.254Z,12.8
2022-08-29T02:32:12.903Z,15.3
2022-08-29T02:34:39.522Z,13.6
2022-08-29T02:37:06.119Z,14.8
2022-08-29T02:39:32.768Z,15.2
2022-08-29T02:41:59.386Z,17.4
2022-08-29T02:44:26.002Z,18.7
2022-08-29T02:46:52.611Z,22.7
2022-08-29T02:49:19.241Z,17.6
2022-08-29T02:51:45.874Z,15.4
2022-08-29T02:54:10.996Z,16.3
2022-08-29T02:56:37.620Z,15.1
2022-08-29T02:59:04.238Z,25
2022-08-29T03:01:30.855Z,18.1
2022-08-29T03:03:57.488Z,14.9
2022-08-29T03:06:24.093Z,18.2
2022-08-29T03:08:50.732Z,17.4
2022-08-29T03:11:17.349Z,18
2022-08-29T03:13:43.965Z,14.8
2022-08-29T03:16:10.587Z,16
2022-08-29T03:18:37.210Z,16.2
2022-08-29T03:21:03.845Z,13.8
2022-08-29T03:23:30.468Z,15.1
2022-08-29T03:25:55.590Z,15.9
2022-08-29T03:28:22.211Z,15.6
2022-08-29T03:30:48.842Z,16.7
2022-08-29T03:33:15.450Z,18.9
2022-08-29T03:35:42.065Z,15.4
2022-08-29T03:38:07.999Z,15.9
2022-08-29T03:40:34.625Z,16.7
2022-08-29T03:43:01.241Z,17.4
2022-08-29T03:45:27.104Z,15.9
2022-08-29T03:47:53.733Z,15
2022-08-29T03:50:20.369Z,15.8
2022-08-29T03:52:46.987Z,17.5
2022-08-29T03:55:13.605Z,16.2
2022-08-29T03:57:38.742Z,15
2022-08-29T04:00:05.356Z,15.8
2022-08-29T04:02:31.967Z,14.6
2022-08-29T04:04:57.768Z,15.7
2022-08-29T04:07:24.401Z,15.6
2022-08-29T04:09:51.016Z,17
2022-08-29T04:12:17.641Z,19.1
2022-08-29T04:14:44.266Z,14.3
2022-08-29T04:17:10.887Z,15.2
2022-08-29T04:19:37.529Z,15.3
2022-08-29T04:22:04.136Z,16.3
2022-08-29T04:24:30.745Z,16.9
2022-08-29T04:26:57.375Z,14.4
2022-08-29T04:29:22.501Z,14.1
2022-08-29T04:31:49.119Z,16.8
2022-08-29T04:34:15.758Z,13.8
2022-08-29T04:36:42.330Z,15.4
2022-08-29T04:39:08.958Z,15.1
2022-08-29T04:41:35.580Z,14
2022-08-29T04:44:02.200Z,16.7
2022-08-29T04:46:28.822Z,14.3
2022-08-29T04:48:54.804Z,16.3
2022-08-29T04:51:21.423Z,13.6
2022-08-29T04:53:48.055Z,13.9
2022-08-29T04:56:14.666Z,14.8
2022-08-29T04:58:41.285Z,15.6
2022-08-29T05:01:06.412Z,14.9
2022-08-29T05:03:32.106Z,22.3
2022-08-29T05:05:58.731Z,19
2022-08-29T05:08:25.342Z,17.9
2022-08-29T05:10:51.976Z,15.6
2022-08-29T05:13:18.588Z,17.1
2022-08-29T05:15:45.226Z,16.4
2022-08-29T05:18:11.840Z,17.3
2022-08-29T05:20:38.467Z,18.1
2022-08-29T05:23:05.091Z,16.9
2022-08-29T05:25:31.699Z,15.6
2022-08-29T05:27:58.336Z,16
2022-08-29T05:30:24.947Z,16.5
2022-08-29T05:32:51.593Z,18.3
2022-08-29T05:35:16.702Z,18.3
2022-08-29T05:37:43.318Z,18.7
2022-08-29T05:40:09.946Z,16.9
2022-08-29T05:42:36.586Z,15.1
2022-08-29T05:45:03.195Z,14.9
2022-08-29T05:47:29.829Z,16.6
2022-08-29T05:49:56.449Z,15.1
2022-08-29T05:52:23.068Z,17.2
2022-08-29T05:54:49.686Z,15.8
2022-08-29T05:57:16.321Z,14.3
2022-08-29T05:59:42.952Z,14.5
2022-08-29T06:02:09.558Z,14.7
2022-08-29T06:04:36.183Z,14.9
2022-08-29T06:07:02.814Z,14.3
2022-08-29T06:09:27.930Z,14.3
2022-08-29T06:11:54.565Z,15
2022-08-29T06:14:21.188Z,15.6
2022-08-29T06:16:47.819Z,14.4
2022-08-29T06:19:14.439Z,15.8
2022-08-29T06:21:41.061Z,14.6
2022-08-29T06:24:07.665Z,17.3
2022-08-29T06:26:34.297Z,15
2022-08-29T06:29:00.919Z,15.8
2022-08-29T06:31:27.545Z,16.1
2022-08-29T06:33:54.159Z,14.8
2022-08-29T06:36:20.797Z,18
2022-08-29T06:38:47.431Z,15.2
2022-08-29T06:41:12.538Z,12.9
2022-08-29T06:43:39.161Z,15.1
2022-08-29T06:46:05.783Z,10.3
2022-08-29T06:48:32.394Z,9.2
2022-08-29T06:50:59.018Z,10
2022-08-29T06:53:25.649Z,9
2022-08-29T06:55:52.265Z,9.7
2022-08-29T06:58:18.891Z,10.4
2022-08-29T07:00:45.383Z,12
2022-08-29T07:03:12.003Z,9.6
2022-08-29T07:05:38.624Z,8.6
2022-08-29T07:08:05.239Z,8.2
2022-08-29T07:10:31.858Z,8.4
2022-08-29T07:12:56.997Z,7.8
2022-08-29T07:15:23.623Z,9.4
2022-08-29T07:17:50.229Z,8.4
2022-08-29T07:20:15.872Z,7.9
2022-08-29T07:22:42.494Z,8.4
2022-08-29T07:25:09.112Z,8.9
2022-08-29T07:27:34.836Z,9.2
2022-08-29T07:30:01.465Z,9
2022-08-29T07:32:28.069Z,9.2
2022-08-29T07:34:53.812Z,9.2
2022-08-29T07:37:20.452Z,8.2
2022-08-29T07:39:47.057Z,8.2
2022-08-29T07:42:13.688Z,8.8
2022-08-29T07:44:38.817Z,8
2022-08-29T07:47:05.415Z,8.7
2022-08-29T07:49:32.044Z,8.8
2022-08-29T07:51:58.665Z,8.3
2022-08-29T07:54:25.283Z,8.7
2022-08-29T07:56:51.920Z,8.7
2022-08-29T07:59:18.541Z,7.9
2022-08-29T08:01:44.622Z,8
2022-08-29T08:04:11.255Z,8.4
2022-08-29T08:06:37.866Z,7.8
2022-08-29T08:09:04.487Z,8.1
2022-08-29T08:11:31.113Z,8.7
2022-08-29T08:13:57.735Z,7.5
2022-08-29T08:16:24.372Z,7.6
2022-08-29T08:18:49.482Z,7.8
2022-08-29T08:21:16.107Z,8.5
2022-08-29T08:23:42.727Z,8.1
2022-08-29T08:26:09.352Z,8
2022-08-29T08:28:35.986Z,7.9
2022-08-29T08:31:02.600Z,8.5
2022-08-29T08:33:29.223Z,9.2
2022-08-29T08:35:55.858Z,7.7
2022-08-29T08:38:21.654Z,7.6
2022-08-29T08:40:48.286Z,7.1
2022-08-29T08:43:14.901Z,7
2022-08-29T08:45:41.559Z,7.7
2022-08-29T08:48:08.143Z,7.5
2022-08-29T08:50:33.278Z,7.6
2022-08-29T08:52:59.911Z,8.4
2022-08-29T08:55:26.534Z,8.5
2022-08-29T08:57:52.254Z,7.3
2022-08-29T09:00:18.868Z,7.7
2022-08-29T09:02:45.638Z,7.6
2022-08-29T09:05:12.117Z,8
2022-08-29T09:07:38.733Z,6.4
2022-08-29T09:10:05.366Z,7
2022-08-29T09:12:32.001Z,7.2
2022-08-29T09:14:58.609Z,7
2022-08-29T09:17:25.486Z,6.7
2022-08-29T09:19:51.866Z,7.6
2022-08-29T09:22:16.989Z,6.9
2022-08-29T09:24:43.604Z,8.2
2022-08-29T09:27:10.236Z,6.5
2022-08-29T09:29:36.872Z,5.8
2022-08-29T09:32:03.471Z,7.1
2022-08-29T09:34:30.098Z,7.9
2022-08-29T09:36:56.719Z,7.7
2022-08-29T09:39:23.346Z,5.9
2022-08-29T09:41:49.963Z,6
2022-08-29T09:44:16.587Z,6.1
2022-08-29T09:46:43.225Z,7.4
2022-08-29T09:49:09.831Z,6.7
2022-08-29T09:51:36.456Z,5.7
2022-08-29T09:54:01.594Z,6.2
2022-08-29T09:56:28.222Z,6.9
2022-08-29T09:58:54.837Z,6.1
2022-08-29T10:01:21.456Z,6.8
2022-08-29T10:03:48.093Z,7
2022-08-29T10:06:14.692Z,6
2022-08-29T10:08:41.344Z,8.3
2022-08-29T10:11:07.955Z,5.5
2022-08-29T10:13:34.572Z,5.4
2022-08-29T10:16:01.211Z,5.9
2022-08-29T10:18:27.809Z,6.4
2022-08-29T10:20:54.443Z,6.4
2022-08-29T10:23:21.077Z,6
2022-08-29T10:25:46.212Z,5.9
2022-08-29T10:28:12.827Z,6.1
2022-08-29T10:30:39.441Z,6.8
2022-08-29T10:33:05.296Z,6
2022-08-29T10:35:31.904Z,5.9
2022-08-29T10:37:58.523Z,6.1
2022-08-29T10:40:25.192Z,6.3
2022-08-29T10:42:51.819Z,6.7
2022-08-29T10:45:18.411Z,6.1
2022-08-29T10:47:45.022Z,8.3
2022-08-29T10:50:11.645Z,6.3
2022-08-29T10:52:38.269Z,5.3
2022-08-29T10:55:04.898Z,5.3
2022-08-29T10:57:30.074Z,6.3
2022-08-29T10:59:56.839Z,4.9
2022-08-29T11:02:23.257Z,4.8
2022-08-29T11:04:49.889Z,6.7
2022-08-29T11:07:16.528Z,4.6
2022-08-29T11:09:43.149Z,5.2
2022-08-29T11:12:08.944Z,6.6
2022-08-29T11:14:35.570Z,6.9
2022-08-29T11:17:02.204Z,5.3
2022-08-29T11:19:28.836Z,5.5
2022-08-29T11:21:55.450Z,4.7
2022-08-29T11:24:22.085Z,6
2022-08-29T11:26:48.690Z,8.4
2022-08-29T11:29:13.820Z,6.8
2022-08-29T11:31:39.550Z,5.9
2022-08-29T11:34:06.157Z,6.9
2022-08-29T11:36:32.795Z,6.3
2022-08-29T11:38:59.422Z,6
2022-08-29T11:41:26.032Z,6.2
2022-08-29T11:43:52.662Z,6.1
2022-08-29T11:46:19.280Z,6.2
2022-08-29T11:48:45.900Z,6.2
2022-08-29T11:51:12.547Z,5
2022-08-29T11:53:39.166Z,6.1
2022-08-29T11:56:05.790Z,5.5
2022-08-29T11:58:32.407Z,5.6
2022-08-29T12:00:59.036Z,7.6
2022-08-29T12:03:24.154Z,5.4
2022-08-29T12:05:50.780Z,5
2022-08-29T12:08:17.401Z,6
2022-08-29T12:10:44.021Z,5.4
2022-08-29T12:13:10.646Z,6
2022-08-29T12:15:36.497Z,5.4
2022-08-29T12:18:03.152Z,5
2022-08-29T12:20:29.763Z,4.6
2022-08-29T12:22:56.373Z,5.2
2022-08-29T12:25:22.998Z,5.5
2022-08-29T12:27:49.640Z,6.2
2022-08-29T12:30:16.248Z,5.3
2022-08-29T12:32:42.857Z,5.6
2022-08-29T12:35:09.514Z,5.5
2022-08-29T12:37:34.641Z,6.1
2022-08-29T12:40:01.236Z,6.3
2022-08-29T12:42:27.873Z,5.5
2022-08-29T12:44:54.492Z,5.3
2022-08-29T12:47:21.115Z,7.1
2022-08-29T12:49:47.723Z,5.2
2022-08-29T12:52:14.365Z,5.1
2022-08-29T12:54:40.971Z,6.6
2022-08-29T12:57:07.603Z,5.8
2022-08-29T12:59:34.238Z,7
2022-08-29T13:02:00.853Z,5.7
2022-08-29T13:04:27.477Z,7.1
2022-08-29T13:06:54.098Z,6.1
2022-08-29T13:09:19.233Z,6.1
2022-08-29T13:11:44.928Z,6.8
2022-08-29T13:14:11.512Z,6
2022-08-29T13:16:38.160Z,5.3
2022-08-29T13:19:04.769Z,5.3
2022-08-29T13:21:31.400Z,6.2
2022-08-29T13:23:57.221Z,5.3
2022-08-29T13:26:23.856Z,5.1
2022-08-29T13:28:50.459Z,5.8
2022-08-29T13:31:17.116Z,5.5
2022-08-29T13:33:43.709Z,5.8
2022-08-29T13:36:10.342Z,5.3
2022-08-29T13:38:36.961Z,5.5
2022-08-29T13:41:02.101Z,6.6
2022-08-29T13:43:28.729Z,6.5
2022-08-29T13:45:55.336Z,13.8
2022-08-29T13:48:21.959Z,6.1
2022-08-29T13:50:48.590Z,5.6
2022-08-29T13:53:15.201Z,5.3
2022-08-29T13:55:41.835Z,5.8
2022-08-29T13:58:08.474Z,5.8
2022-08-29T14:00:35.098Z,6.1
2022-08-29T14:03:00.864Z,5.5
2022-08-29T14:07:54.112Z,6.8
2022-08-29T14:10:20.747Z,7.3
2022-08-29T14:12:47.373Z,5.5
2022-08-29T14:15:12.483Z,5.3
2022-08-29T14:17:39.105Z,5.4
2022-08-29T14:20:05.737Z,5.9
2022-08-29T14:22:32.364Z,5.6
2022-08-29T14:24:58.994Z,6.3
2022-08-29T14:27:25.612Z,5
2022-08-29T14:32:18.866Z,5.1
2022-08-29T14:39:38.733Z,5.6
2022-08-29T14:42:05.352Z,5.1
2022-08-29T14:44:30.488Z,5.2
2022-08-29T14:46:57.107Z,5.4
2022-08-29T14:49:23.742Z,5.7
2022-08-29T14:51:48.872Z,5.6
2022-08-29T14:56:42.123Z,5.3
2022-08-29T14:59:08.734Z,6.5
2022-08-29T15:01:35.373Z,5.2
2022-08-29T15:06:28.631Z,4.8
2022-08-29T15:11:21.875Z,5.2
2022-08-29T15:13:48.482Z,5.6
2022-08-29T15:16:15.103Z,5.5
2022-08-29T15:21:06.875Z,5.7
2022-08-29T15:26:00.124Z,5.3
2022-08-29T15:28:25.246Z,5.1
2022-08-29T15:30:51.867Z,5.8
2022-08-29T15:33:16.992Z,5.9
2022-08-29T15:35:43.616Z,5.6
2022-08-29T15:40:36.862Z,5.6
2022-08-29T15:43:03.481Z,7.3
2022-08-29T15:45:30.112Z,5.8
2022-08-29T15:47:56.729Z,6
2022-08-29T15:50:23.360Z,5.5
2022-08-29T15:52:49.130Z,5.4
2022-08-29T15:55:14.256Z,5.8
2022-08-29T15:57:40.885Z,5.6
2022-08-29T16:00:07.523Z,6.2
2022-08-29T16:02:34.163Z,8.1
2022-08-29T16:05:00.740Z,7.6
2022-08-29T16:07:27.399Z,5.6
2022-08-29T16:09:54.012Z,7.3
2022-08-29T16:12:20.618Z,5.9
2022-08-29T16:14:47.241Z,6.5
2022-08-29T16:17:13.887Z,5.8
2022-08-29T16:19:40.486Z,7.3
2022-08-29T16:22:05.639Z,5.4
2022-08-29T16:24:30.757Z,6.6
2022-08-29T16:26:57.368Z,6.8
2022-08-29T16:29:24.001Z,6
2022-08-29T16:34:17.236Z,5.5
2022-08-29T16:36:43.871Z,6.2
2022-08-29T16:39:10.485Z,5.7
2022-08-29T16:41:37.136Z,8.8
2022-08-29T16:44:03.729Z,5.1
2022-08-29T16:46:30.362Z,7.5
2022-08-29T16:48:56.987Z,5.4
2022-08-29T16:51:23.599Z,5.6
2022-08-29T16:53:50.223Z,6.5
2022-08-29T16:56:15.351Z,7.3
2022-08-29T16:58:41.979Z,5.9
2022-08-29T17:01:08.599Z,6.8
2022-08-29T17:03:35.231Z,9.1
2022-08-29T17:06:01.860Z,7.8
2022-08-29T17:08:28.469Z,5.3
2022-08-29T17:10:55.094Z,7
2022-08-29T17:13:21.721Z,8
2022-08-29T17:15:48.355Z,6.3
2022-08-29T17:18:14.962Z,8.1
2022-08-29T17:20:40.107Z,5.8
2022-08-29T17:23:05.235Z,5.7
2022-08-29T17:25:31.859Z,6.8
2022-08-29T17:27:58.474Z,6.9
2022-08-29T17:30:25.101Z,5.3
2022-08-29T17:32:51.715Z,6.2
2022-08-29T17:35:18.355Z,7.4
2022-08-29T17:37:44.970Z,5.8
2022-08-29T17:40:11.591Z,6.1
2022-08-29T17:42:38.215Z,5.9
2022-08-29T17:45:04.845Z,7.8
2022-08-29T17:47:31.471Z,5.9
2022-08-29T17:49:58.099Z,6.8
2022-08-29T17:52:24.718Z,7.5
2022-08-29T17:54:49.853Z,7.6
2022-08-29T17:57:16.461Z,6.3
2022-08-29T18:02:09.713Z,7.2
2022-08-29T18:04:36.338Z,6.1
2022-08-29T18:07:02.956Z,7.2
2022-08-29T18:09:29.586Z,8.1
2022-08-29T18:11:56.206Z,7.1
2022-08-29T18:16:49.457Z,7.3
2022-08-29T18:19:16.073Z,7.3
2022-08-29T18:21:42.701Z,7.2
2022-08-29T18:24:09.322Z,8
2022-08-29T18:26:35.953Z,7.3
2022-08-29T18:29:01.097Z,7.1
2022-08-29T18:31:27.690Z,7.3
2022-08-29T18:33:53.929Z,7.4
2022-08-29T18:36:20.540Z,7.2
2022-08-29T18:38:47.165Z,8.8
2022-08-29T18:41:13.784Z,8.4
2022-08-29T18:43:40.417Z,7.8
2022-08-29T18:46:07.044Z,8.5
2022-08-29T18:48:33.663Z,7.5
2022-08-29T18:51:00.288Z,9.2
2022-08-29T18:53:26.913Z,7.9
2022-08-29T18:55:53.534Z,7.8
2022-08-29T18:58:20.162Z,7.5
2022-08-29T19:00:45.280Z,7.6
2022-08-29T19:03:11.911Z,7
2022-08-29T19:05:37.535Z,7.9
2022-08-29T19:08:04.172Z,7.7
2022-08-29T19:10:30.792Z,11.1
2022-08-29T19:12:57.433Z,10.5
2022-08-29T19:15:24.024Z,8
2022-08-29T19:17:50.666Z,7.1
2022-08-29T19:20:17.284Z,8.8
2022-08-29T19:22:43.907Z,8.1
2022-08-29T19:25:10.538Z,8.4
2022-08-29T19:27:37.160Z,8.2
2022-08-29T19:30:03.777Z,8.1
2022-08-29T19:32:28.903Z,8.1
2022-08-29T19:34:55.546Z,9.3
2022-08-29T19:37:22.139Z,8.4
2022-08-29T19:39:48.800Z,8.2
2022-08-29T19:42:15.397Z,8.1
2022-08-29T19:44:42.006Z,8.1
2022-08-29T19:47:08.662Z,9.4
2022-08-29T19:49:35.286Z,8.7
2022-08-29T19:52:01.925Z,8
2022-08-29T19:54:28.446Z,9
2022-08-29T19:56:55.065Z,9.7
2022-08-29T19:59:21.691Z,11.9
2022-08-29T20:01:48.314Z,7.9
2022-08-29T20:04:13.423Z,7.6
2022-08-29T20:06:40.078Z,13.6
2022-08-29T20:09:06.714Z,12
2022-08-29T20:11:33.295Z,13
2022-08-29T20:13:59.935Z,16.9
2022-08-29T20:16:26.525Z,19
2022-08-29T20:18:53.183Z,19.6
2022-08-29T20:21:19.770Z,23.1
2022-08-29T20:23:46.432Z,11.9
2022-08-29T20:26:13.014Z,8.9
2022-08-29T20:28:39.635Z,12.5
2022-08-29T20:31:06.264Z,21.6
2022-08-29T20:33:32.883Z,19.8
2022-08-29T20:35:58.010Z,10.3
2022-08-29T20:38:24.637Z,11
2022-08-29T20:40:51.268Z,9.2
2022-08-29T20:43:17.869Z,8.9
2022-08-29T20:45:44.513Z,10
2022-08-29T20:48:11.118Z,8.6
2022-08-29T20:50:37.738Z,10.2
2022-08-29T20:53:04.375Z,8.7
2022-08-29T20:55:31.005Z,9.2
2022-08-29T20:57:57.616Z,9.2
2022-08-29T21:00:24.254Z,9.5
2022-08-29T21:02:50.864Z,8.2
2022-08-29T21:05:17.471Z,10.4
2022-08-29T21:07:42.619Z,8.1
2022-08-29T21:10:09.231Z,9
2022-08-29T21:12:35.844Z,10.3
2022-08-29T21:15:02.478Z,8.5
2022-08-29T21:17:29.098Z,11.8
2022-08-29T21:19:55.717Z,8.5
2022-08-29T21:22:22.346Z,10.2
2022-08-29T21:24:48.972Z,9.5
2022-08-29T21:27:15.586Z,10.3
2022-08-29T21:29:42.209Z,12.7
2022-08-29T21:32:08.839Z,8.8
2022-08-29T21:34:35.456Z,10.2
2022-08-29T21:37:02.085Z,8.2
2022-08-29T21:39:27.204Z,10.4
2022-08-29T21:41:53.837Z,11.1
2022-08-29T21:44:20.463Z,11.2
2022-08-29T21:46:47.078Z,11.6
2022-08-29T21:49:13.696Z,10.9
2022-08-29T21:51:40.330Z,10.7
2022-08-29T21:54:06.956Z,15.7
2022-08-29T21:56:33.574Z,11.3
2022-08-29T21:59:00.196Z,11.6
2022-08-29T22:01:26.813Z,12.7
2022-08-29T22:03:53.435Z,9.7
2022-08-29T22:06:20.061Z,17.4
2022-08-29T22:08:46.694Z,19.9
2022-08-29T22:11:11.811Z,13.9
2022-08-29T22:13:38.434Z,16.6
2022-08-29T22:16:05.063Z,13.9
2022-08-29T22:18:31.672Z,12.1
2022-08-29T22:20:58.300Z,19.2
2022-08-29T22:23:24.927Z,10.7
2022-08-29T22:25:51.537Z,8.7
2022-08-29T22:28:18.172Z,10
2022-08-29T22:30:44.791Z,8.6
2022-08-29T22:33:11.419Z,10.7
2022-08-29T22:35:38.030Z,11.4
2022-08-29T22:38:04.665Z,9.4
2022-08-29T22:40:31.292Z,9.8
2022-08-29T22:42:57.912Z,9.7
2022-08-29T22:45:24.531Z,10.5
2022-08-29T22:47:49.650Z,12.1
2022-08-29T22:50:16.269Z,10.1
2022-08-29T22:52:42.895Z,10.6
2022-08-29T22:55:09.511Z,9.2
2022-08-29T22:57:36.149Z,11.2
2022-08-29T23:00:02.770Z,12.2
2022-08-29T23:02:29.396Z,11.6
2022-08-29T23:04:56.018Z,11
2022-08-29T23:07:22.635Z,10
2022-08-29T23:09:49.256Z,10.8
2022-08-29T23:12:15.887Z,10.6
2022-08-29T23:14:42.504Z,10.4
2022-08-29T23:17:09.115Z,11.8
2022-08-29T23:19:34.245Z,9.7
2022-08-29T23:22:00.882Z,9.3
2022-08-29T23:24:27.493Z,9.9
2022-08-29T23:26:54.114Z,11.3
2022-08-29T23:29:20.740Z,10.6
2022-08-29T23:31:47.365Z,10.1
2022-08-29T23:34:13.984Z,11.7
2022-08-29T23:36:40.620Z,11.1
2022-08-29T23:39:07.232Z,13.4
2022-08-29T23:41:33.863Z,15.1
2022-08-29T23:44:00.470Z,10.5
2022-08-29T23:46:27.107Z,11.8
2022-08-29T23:48:53.724Z,13.5
2022-08-29T23:51:18.855Z,11.8
2022-08-29T23:53:45.480Z,9.6
2022-08-29T23:56:12.095Z,12.2
2022-08-29T23:58:38.722Z,11.9
